Hub


Voltar

 INFORMAÇÕES METEOROLÓGICAS

METAR FOR SBGW


ADDS - METARS form results

(0747 UTC 25 August 2019)
Data provider http://aviationweather.gov/metar/data/
 
Forecast for: SBGW (GUARATINGUETA (M, BR)
Text: TAF SBGW 250200Z 2506/2518 12006KT 6000 BKN015 TN12/2508Z TX25/2518Z
Forecast period: 0600 to 1200 UTC 25 August 2019
Forecast type: FROM: standard forecast or significant change
Winds: from the ESE (120 degrees) at 7 MPH (6 knots; 3.1 m/s)
Visibility: 4 miles (6 km)
Ceiling: 1500 feet AGL
Clouds: broken clouds at 1500 feet AGL
Weather: no significant weather forecast for this period
Text: BECMG 2512/2514 9999 NSW SCT025 RMK PDW
Forecast period: 1200 to 1800 UTC 25 August 2019
Forecast type: BECOMING: Conditions expected to become as follows by 1400 UTC 25 August 2019
Winds: from the ESE (120 degrees) at 7 MPH (6 knots; 3.1 m/s)
Visibility: 6 or more miles 10+ km)
Ceiling: at least 12,000 feet AGL
Clouds: scattered clouds at 2500 feet AGL
Weather: NSW  (no significant weather)


 MAPA DO AEROPORTO


 INFORMAÇÕES DA PISTA

Pista 2 Tamanho da pista 5089 ft Largura da pista 98 ft
Elevação da pista 0 ft Ranhura da pista 0 ft Proa da pista 0
Pista 20 Tamanho da pista 5089 ft Largura da pista 98 ft
Elevação da pista 0 ft Ranhura da pista 0 ft Proa da pista 0

 FREQUÊNCIAS DO AEROPORTO

Tipo APP Nome GUARA APP Frequência 122.8 MHZ
Tipo TWR Nome GUARA TWR Frequência 125.9 MHZ

 AUXÍLIOS DE NAVEGAÇÃO PRÓXIMOS AO AEROPORTO

Tipo NDB Nome Guaratingueta Frequência 275 KHZ